Santo Domingo, Dominican Republic

1:11 PM AST on February 24, 2017 (GMT -0400)
La Esperilla | | Change Station

Elev 154 ft 18.47 °N, 69.92 °W | Updated 58 seconds ago

Partly Cloudy
Partly Cloudy
82.6 °F
Feels Like 89 °F
N
9.4
Wind Variable Wind from South

Today
High -- | Low -- °F
--% Chance of Precip.
Yesterday
High -- | Low -- °F
Precip. -- in
Pressure 29.89 in
Visibility 6.2 miles
Clouds Scattered Clouds 2000 ft
Heat Index 89 °F
Dew Point 75 °F
Humidity 77%
Rainfall 0.00 in
Snow Depth Not available.
7:01 AM 6:43 PM
Waning Crescent, 4% visible
METAR MDJB 241700Z 18013KT 9999 SCT020 30/22 Q1012
Pressure 29.89 in
Visibility 6.2 miles
Clouds Scattered Clouds 2000 ft
Heat Index 89 °F
Dew Point 75 °F
Humidity 77%
Rainfall 0.00 in
Snow Depth Not available.
7:01 AM 6:43 PM
Waning Crescent, 4% visible
METAR MDJB 241700Z 18013KT 9999 SCT020 30/22 Q1012

Get Your Daily Forecast Email!

Thanks for signing up!

Be on the lookout for a verification email in your inbox.

You'll start receiving the daily forecast at 8 AM.

×

10-Day Weather Forecast

No radar image for this location.
×

Almanac

Astronomy

Feb. 24, 2017 Rise Set
Actual Time
Civil Twilight
Nautical Twilight
Astronomical Twilight
Moon
Length of Visible Light
Length of Day
Tomorrow will be .
, % of the Moon is Illuminated

Today's Extremes

Country Highs Country Lows

Community

WunderPhotos

Upload Photos

1,962,540 photos uploaded!

WunderBlog® & News

Nearby

Air Quality

  Air Quality AQ Index Pollutant
Not available.

Snow Depth

Station Depth Elevation

Earthquake Activity

City Distance Mag. Time & Date
Minimum magnitude displayed is 2.5.

Coastal Water Temperatures

Place Temperature

Stations

Nearby Weather Stations

Station Location Temp. Windchill Dew Point Humidity Wind Precip. Elev Updated Type